Terminal Aerodrome Forecast
Issued by NWS Nashville, TN

Home | Current Version | Previous Version | Text Only | Print | Product List | Glossary On
Versions: 1 2 3 4 5 6 7 8 9 10 11 12 13 14
000
FTUS44 KOHX 310520
TAFBNA
TAF
KBNA 310520Z 3106/0106 00000KT P6SM BKN150
     FM310900 VRB03KT 5SM BR FEW100
     FM311300 12005KT P6SM FEW050 SCT120=

USA.gov is the U.S. government's official web portal to all federal, state and local government web resources and services.